sensor_id;sensor_type;location;lat;lon;timestamp;P1;durP1;ratioP1;P2;durP2;ratioP2
55090;SDS011;40985;53.180;5.800;2023-12-20T00:01:03;12.70;;;0.80;;
55090;SDS011;40985;53.180;5.800;2023-12-20T00:03:29;13.35;;;0.70;;
55090;SDS011;40985;53.180;5.800;2023-12-20T00:05:54;14.68;;;1.10;;
55090;SDS011;40985;53.180;5.800;2023-12-20T00:08:20;20.23;;;1.70;;
55090;SDS011;40985;53.180;5.800;2023-12-20T00:10:46;14.20;;;1.13;;
55090;SDS011;40985;53.180;5.800;2023-12-20T00:13:12;27.70;;;1.83;;
55090;SDS011;40985;53.180;5.800;2023-12-20T00:15:37;18.42;;;1.55;;
55090;SDS011;40985;53.180;5.800;2023-12-20T00:18:03;18.83;;;1.75;;
55090;SDS011;40985;53.180;5.800;2023-12-20T00:20:29;17.25;;;1.23;;
55090;SDS011;40985;53.180;5.800;2023-12-20T00:22:58;22.17;;;1.95;;
55090;SDS011;40985;53.180;5.800;2023-12-20T00:25:24;23.52;;;1.80;;
55090;SDS011;40985;53.180;5.800;2023-12-20T00:27:50;21.17;;;2.10;;
55090;SDS011;40985;53.180;5.800;2023-12-20T00:30:16;17.08;;;1.58;;
55090;SDS011;40985;53.180;5.800;2023-12-20T00:32:41;23.58;;;1.67;;
55090;SDS011;40985;53.180;5.800;2023-12-20T00:35:14;18.52;;;1.17;;
55090;SDS011;40985;53.180;5.800;2023-12-20T00:37:40;23.92;;;2.75;;
55090;SDS011;40985;53.180;5.800;2023-12-20T00:40:06;29.42;;;2.63;;
55090;SDS011;40985;53.180;5.800;2023-12-20T00:42:32;22.73;;;2.63;;
55090;SDS011;40985;53.180;5.800;2023-12-20T00:44:58;22.88;;;2.72;;
55090;SDS011;40985;53.180;5.800;2023-12-20T00:47:24;28.88;;;1.95;;
55090;SDS011;40985;53.180;5.800;2023-12-20T00:49:50;22.80;;;2.25;;
55090;SDS011;40985;53.180;5.800;2023-12-20T00:52:16;25.27;;;2.25;;
55090;SDS011;40985;53.180;5.800;2023-12-20T00:54:42;24.65;;;3.13;;
55090;SDS011;40985;53.180;5.800;2023-12-20T00:57:08;26.65;;;2.15;;
55090;SDS011;40985;53.180;5.800;2023-12-20T00:59:34;22.65;;;2.22;;
55090;SDS011;40985;53.180;5.800;2023-12-20T01:02:00;25.50;;;2.25;;
55090;SDS011;40985;53.180;5.800;2023-12-20T01:04:26;22.20;;;2.38;;
55090;SDS011;40985;53.180;5.800;2023-12-20T01:06:51;24.15;;;2.20;;
55090;SDS011;40985;53.180;5.800;2023-12-20T01:09:18;21.90;;;2.85;;
55090;SDS011;40985;53.180;5.800;2023-12-20T01:11:44;21.98;;;3.05;;
55090;SDS011;40985;53.180;5.800;2023-12-20T01:14:11;35.55;;;3.55;;
55090;SDS011;40985;53.180;5.800;2023-12-20T01:16:37;28.95;;;1.92;;
55090;SDS011;40985;53.180;5.800;2023-12-20T01:19:03;27.65;;;2.42;;
55090;SDS011;40985;53.180;5.800;2023-12-20T01:21:29;27.17;;;3.55;;
55090;SDS011;40985;53.180;5.800;2023-12-20T01:23:55;24.77;;;3.33;;
55090;SDS011;40985;53.180;5.800;2023-12-20T01:26:20;27.10;;;2.65;;
55090;SDS011;40985;53.180;5.800;2023-12-20T01:28:46;24.25;;;1.58;;
55090;SDS011;40985;53.180;5.800;2023-12-20T01:31:12;20.27;;;2.33;;
55090;SDS011;40985;53.180;5.800;2023-12-20T01:33:38;26.85;;;3.05;;
55090;SDS011;40985;53.180;5.800;2023-12-20T01:36:03;24.88;;;2.70;;
55090;SDS011;40985;53.180;5.800;2023-12-20T01:38:29;28.08;;;2.67;;
55090;SDS011;40985;53.180;5.800;2023-12-20T01:40:55;24.65;;;2.70;;
55090;SDS011;40985;53.180;5.800;2023-12-20T01:43:20;28.55;;;3.03;;
55090;SDS011;40985;53.180;5.800;2023-12-20T01:45:46;31.52;;;2.83;;
55090;SDS011;40985;53.180;5.800;2023-12-20T01:48:12;27.10;;;3.88;;
55090;SDS011;40985;53.180;5.800;2023-12-20T01:50:41;24.75;;;3.42;;
55090;SDS011;40985;53.180;5.800;2023-12-20T01:53:08;32.10;;;3.85;;
55090;SDS011;40985;53.180;5.800;2023-12-20T01:55:38;30.40;;;3.33;;
55090;SDS011;40985;53.180;5.800;2023-12-20T01:58:05;32.30;;;4.25;;
55090;SDS011;40985;53.180;5.800;2023-12-20T02:00:35;26.65;;;2.42;;
55090;SDS011;40985;53.180;5.800;2023-12-20T02:03:02;30.52;;;3.30;;
55090;SDS011;40985;53.180;5.800;2023-12-20T02:05:32;24.00;;;2.70;;
55090;SDS011;40985;53.180;5.800;2023-12-20T02:08:00;25.58;;;2.97;;
55090;SDS011;40985;53.180;5.800;2023-12-20T02:10:25;42.50;;;3.50;;
55090;SDS011;40985;53.180;5.800;2023-12-20T02:12:52;28.23;;;2.17;;
55090;SDS011;40985;53.180;5.800;2023-12-20T02:15:17;29.70;;;3.33;;
55090;SDS011;40985;53.180;5.800;2023-12-20T02:17:43;28.98;;;2.50;;
55090;SDS011;40985;53.180;5.800;2023-12-20T02:20:11;24.20;;;2.47;;
55090;SDS011;40985;53.180;5.800;2023-12-20T02:22:37;24.25;;;3.00;;
55090;SDS011;40985;53.180;5.800;2023-12-20T02:25:02;24.45;;;3.10;;
55090;SDS011;40985;53.180;5.800;2023-12-20T02:27:28;28.83;;;2.83;;
55090;SDS011;40985;53.180;5.800;2023-12-20T02:29:55;27.88;;;3.13;;
55090;SDS011;40985;53.180;5.800;2023-12-20T02:32:21;39.60;;;3.75;;
55090;SDS011;40985;53.180;5.800;2023-12-20T02:34:51;35.72;;;3.63;;
55090;SDS011;40985;53.180;5.800;2023-12-20T02:37:17;30.90;;;2.88;;
55090;SDS011;40985;53.180;5.800;2023-12-20T02:39:42;33.15;;;3.80;;
55090;SDS011;40985;53.180;5.800;2023-12-20T02:42:08;29.48;;;3.20;;
55090;SDS011;40985;53.180;5.800;2023-12-20T02:44:34;31.80;;;3.25;;
55090;SDS011;40985;53.180;5.800;2023-12-20T02:46:59;37.22;;;5.10;;
55090;SDS011;40985;53.180;5.800;2023-12-20T02:49:25;28.00;;;4.65;;
55090;SDS011;40985;53.180;5.800;2023-12-20T02:51:50;40.95;;;3.42;;
55090;SDS011;40985;53.180;5.800;2023-12-20T02:54:16;32.17;;;3.28;;
55090;SDS011;40985;53.180;5.800;2023-12-20T02:56:42;34.83;;;3.72;;
55090;SDS011;40985;53.180;5.800;2023-12-20T02:59:08;34.92;;;3.22;;
55090;SDS011;40985;53.180;5.800;2023-12-20T03:01:34;31.45;;;3.42;;
55090;SDS011;40985;53.180;5.800;2023-12-20T03:04:00;32.08;;;4.15;;
55090;SDS011;40985;53.180;5.800;2023-12-20T03:06:26;24.85;;;2.35;;
55090;SDS011;40985;53.180;5.800;2023-12-20T03:08:52;27.67;;;3.45;;
55090;SDS011;40985;53.180;5.800;2023-12-20T03:11:18;21.75;;;2.75;;
55090;SDS011;40985;53.180;5.800;2023-12-20T03:13:43;24.02;;;3.55;;
55090;SDS011;40985;53.180;5.800;2023-12-20T03:16:10;32.55;;;2.92;;
55090;SDS011;40985;53.180;5.800;2023-12-20T03:18:36;25.33;;;2.22;;
55090;SDS011;40985;53.180;5.800;2023-12-20T03:21:02;34.42;;;3.00;;
55090;SDS011;40985;53.180;5.800;2023-12-20T03:23:29;27.10;;;2.97;;
55090;SDS011;40985;53.180;5.800;2023-12-20T03:25:55;28.63;;;2.50;;
55090;SDS011;40985;53.180;5.800;2023-12-20T03:28:21;29.63;;;2.47;;
55090;SDS011;40985;53.180;5.800;2023-12-20T03:30:48;33.22;;;3.78;;
55090;SDS011;40985;53.180;5.800;2023-12-20T03:33:14;31.65;;;2.85;;
55090;SDS011;40985;53.180;5.800;2023-12-20T03:35:39;27.38;;;3.10;;
55090;SDS011;40985;53.180;5.800;2023-12-20T03:38:05;32.60;;;3.35;;
55090;SDS011;40985;53.180;5.800;2023-12-20T03:40:31;27.38;;;2.15;;
55090;SDS011;40985;53.180;5.800;2023-12-20T03:42:56;32.10;;;3.35;;
55090;SDS011;40985;53.180;5.800;2023-12-20T03:45:22;26.95;;;2.60;;
55090;SDS011;40985;53.180;5.800;2023-12-20T03:47:48;28.20;;;3.35;;
55090;SDS011;40985;53.180;5.800;2023-12-20T03:50:14;29.67;;;2.90;;
55090;SDS011;40985;53.180;5.800;2023-12-20T03:52:40;33.47;;;4.20;;
55090;SDS011;40985;53.180;5.800;2023-12-20T03:55:06;24.92;;;2.53;;
55090;SDS011;40985;53.180;5.800;2023-12-20T03:57:31;30.70;;;2.30;;
55090;SDS011;40985;53.180;5.800;2023-12-20T03:59:57;27.42;;;2.60;;
55090;SDS011;40985;53.180;5.800;2023-12-20T04:02:23;29.92;;;3.92;;
55090;SDS011;40985;53.180;5.800;2023-12-20T04:04:48;36.38;;;3.80;;
55090;SDS011;40985;53.180;5.800;2023-12-20T04:07:14;29.88;;;3.47;;
55090;SDS011;40985;53.180;5.800;2023-12-20T04:09:40;36.00;;;3.60;;
55090;SDS011;40985;53.180;5.800;2023-12-20T04:12:06;30.42;;;4.15;;
55090;SDS011;40985;53.180;5.800;2023-12-20T04:14:32;26.00;;;3.17;;
55090;SDS011;40985;53.180;5.800;2023-12-20T04:16:58;30.13;;;3.38;;
55090;SDS011;40985;53.180;5.800;2023-12-20T04:19:23;25.17;;;3.10;;
55090;SDS011;40985;53.180;5.800;2023-12-20T04:21:49;36.50;;;3.85;;
55090;SDS011;40985;53.180;5.800;2023-12-20T04:24:15;31.25;;;3.75;;
55090;SDS011;40985;53.180;5.800;2023-12-20T04:26:41;29.10;;;3.55;;
55090;SDS011;40985;53.180;5.800;2023-12-20T04:29:06;36.60;;;4.15;;
55090;SDS011;40985;53.180;5.800;2023-12-20T04:31:32;38.95;;;4.60;;
55090;SDS011;40985;53.180;5.800;2023-12-20T04:33:58;33.17;;;3.13;;
55090;SDS011;40985;53.180;5.800;2023-12-20T04:36:23;27.42;;;2.92;;
55090;SDS011;40985;53.180;5.800;2023-12-20T04:38:51;26.00;;;2.42;;
55090;SDS011;40985;53.180;5.800;2023-12-20T04:41:18;30.40;;;2.70;;
55090;SDS011;40985;53.180;5.800;2023-12-20T04:43:44;34.33;;;3.03;;
55090;SDS011;40985;53.180;5.800;2023-12-20T04:46:09;30.90;;;3.47;;
55090;SDS011;40985;53.180;5.800;2023-12-20T04:48:35;44.60;;;3.28;;
55090;SDS011;40985;53.180;5.800;2023-12-20T04:51:01;33.88;;;4.15;;
55090;SDS011;40985;53.180;5.800;2023-12-20T04:53:27;27.15;;;2.53;;
55090;SDS011;40985;53.180;5.800;2023-12-20T04:55:53;35.28;;;4.05;;
55090;SDS011;40985;53.180;5.800;2023-12-20T04:58:18;24.77;;;3.17;;
55090;SDS011;40985;53.180;5.800;2023-12-20T05:00:44;25.77;;;2.63;;
55090;SDS011;40985;53.180;5.800;2023-12-20T05:03:10;33.25;;;3.55;;
55090;SDS011;40985;53.180;5.800;2023-12-20T05:05:36;29.95;;;2.88;;
55090;SDS011;40985;53.180;5.800;2023-12-20T05:08:01;29.95;;;3.85;;
55090;SDS011;40985;53.180;5.800;2023-12-20T05:10:27;31.75;;;3.58;;
55090;SDS011;40985;53.180;5.800;2023-12-20T05:12:53;39.75;;;5.15;;
55090;SDS011;40985;53.180;5.800;2023-12-20T05:15:18;29.35;;;3.40;;
55090;SDS011;40985;53.180;5.800;2023-12-20T05:17:44;28.88;;;3.60;;
55090;SDS011;40985;53.180;5.800;2023-12-20T05:20:10;36.15;;;3.53;;
55090;SDS011;40985;53.180;5.800;2023-12-20T05:22:35;34.65;;;3.60;;
55090;SDS011;40985;53.180;5.800;2023-12-20T05:25:01;35.75;;;3.90;;
55090;SDS011;40985;53.180;5.800;2023-12-20T05:27:27;31.40;;;3.03;;
55090;SDS011;40985;53.180;5.800;2023-12-20T05:29:53;27.33;;;3.60;;
55090;SDS011;40985;53.180;5.800;2023-12-20T05:32:22;26.27;;;3.13;;
55090;SDS011;40985;53.180;5.800;2023-12-20T05:34:48;24.67;;;2.95;;
55090;SDS011;40985;53.180;5.800;2023-12-20T05:37:14;30.15;;;3.13;;
55090;SDS011;40985;53.180;5.800;2023-12-20T05:39:39;32.10;;;3.58;;
55090;SDS011;40985;53.180;5.800;2023-12-20T05:42:05;26.55;;;3.03;;
55090;SDS011;40985;53.180;5.800;2023-12-20T05:44:31;32.17;;;4.90;;
55090;SDS011;40985;53.180;5.800;2023-12-20T05:46:57;34.22;;;4.65;;
55090;SDS011;40985;53.180;5.800;2023-12-20T05:49:22;29.10;;;3.60;;
55090;SDS011;40985;53.180;5.800;2023-12-20T05:51:48;25.35;;;2.45;;
55090;SDS011;40985;53.180;5.800;2023-12-20T05:54:15;31.38;;;3.17;;
55090;SDS011;40985;53.180;5.800;2023-12-20T05:56:40;27.33;;;4.15;;
55090;SDS011;40985;53.180;5.800;2023-12-20T05:59:06;31.77;;;4.00;;
55090;SDS011;40985;53.180;5.800;2023-12-20T06:01:32;34.30;;;3.72;;
55090;SDS011;40985;53.180;5.800;2023-12-20T06:03:57;31.50;;;3.05;;
55090;SDS011;40985;53.180;5.800;2023-12-20T06:06:23;30.30;;;2.85;;
55090;SDS011;40985;53.180;5.800;2023-12-20T06:08:49;30.85;;;3.75;;
55090;SDS011;40985;53.180;5.800;2023-12-20T06:11:14;38.80;;;4.57;;
55090;SDS011;40985;53.180;5.800;2023-12-20T06:13:40;35.63;;;3.05;;
55090;SDS011;40985;53.180;5.800;2023-12-20T06:16:06;27.67;;;3.08;;
55090;SDS011;40985;53.180;5.800;2023-12-20T06:18:35;30.02;;;3.35;;
55090;SDS011;40985;53.180;5.800;2023-12-20T06:21:02;23.77;;;2.67;;
55090;SDS011;40985;53.180;5.800;2023-12-20T06:23:28;22.65;;;3.00;;
55090;SDS011;40985;53.180;5.800;2023-12-20T06:25:53;24.90;;;2.70;;
55090;SDS011;40985;53.180;5.800;2023-12-20T06:28:19;21.65;;;2.60;;
55090;SDS011;40985;53.180;5.800;2023-12-20T06:30:45;32.50;;;3.85;;
55090;SDS011;40985;53.180;5.800;2023-12-20T06:33:12;24.77;;;3.45;;
55090;SDS011;40985;53.180;5.800;2023-12-20T06:35:38;33.03;;;4.25;;
55090;SDS011;40985;53.180;5.800;2023-12-20T06:38:04;26.77;;;3.13;;
55090;SDS011;40985;53.180;5.800;2023-12-20T06:40:30;29.73;;;3.58;;
55090;SDS011;40985;53.180;5.800;2023-12-20T06:42:55;37.85;;;4.40;;
55090;SDS011;40985;53.180;5.800;2023-12-20T06:45:21;26.83;;;3.08;;
55090;SDS011;40985;53.180;5.800;2023-12-20T06:47:47;26.40;;;3.45;;
55090;SDS011;40985;53.180;5.800;2023-12-20T06:50:12;30.40;;;3.72;;
55090;SDS011;40985;53.180;5.800;2023-12-20T06:52:39;38.10;;;4.70;;
55090;SDS011;40985;53.180;5.800;2023-12-20T06:55:05;33.45;;;4.60;;
55090;SDS011;40985;53.180;5.800;2023-12-20T06:57:30;30.92;;;4.18;;
55090;SDS011;40985;53.180;5.800;2023-12-20T06:59:56;29.38;;;3.28;;
55090;SDS011;40985;53.180;5.800;2023-12-20T07:02:22;28.73;;;3.00;;
55090;SDS011;40985;53.180;5.800;2023-12-20T07:04:48;22.77;;;3.90;;
55090;SDS011;40985;53.180;5.800;2023-12-20T07:07:14;27.80;;;3.08;;
55090;SDS011;40985;53.180;5.800;2023-12-20T07:09:40;31.30;;;3.35;;
55090;SDS011;40985;53.180;5.800;2023-12-20T07:12:08;27.48;;;3.97;;
55090;SDS011;40985;53.180;5.800;2023-12-20T07:14:34;29.92;;;3.03;;
55090;SDS011;40985;53.180;5.800;2023-12-20T07:17:00;30.55;;;4.18;;
55090;SDS011;40985;53.180;5.800;2023-12-20T07:19:25;31.67;;;4.20;;
55090;SDS011;40985;53.180;5.800;2023-12-20T07:21:51;26.08;;;2.50;;
55090;SDS011;40985;53.180;5.800;2023-12-20T07:24:17;22.67;;;2.65;;
55090;SDS011;40985;53.180;5.800;2023-12-20T07:26:42;26.17;;;2.83;;
55090;SDS011;40985;53.180;5.800;2023-12-20T07:29:08;30.30;;;3.50;;
55090;SDS011;40985;53.180;5.800;2023-12-20T07:31:34;30.40;;;4.28;;
55090;SDS011;40985;53.180;5.800;2023-12-20T07:34:00;23.30;;;2.67;;
55090;SDS011;40985;53.180;5.800;2023-12-20T07:36:25;27.85;;;2.67;;
55090;SDS011;40985;53.180;5.800;2023-12-20T07:38:51;31.50;;;4.15;;
55090;SDS011;40985;53.180;5.800;2023-12-20T07:41:16;28.52;;;3.00;;
55090;SDS011;40985;53.180;5.800;2023-12-20T07:43:43;25.30;;;2.92;;
55090;SDS011;40985;53.180;5.800;2023-12-20T07:46:09;30.60;;;3.70;;
55090;SDS011;40985;53.180;5.800;2023-12-20T07:48:35;35.58;;;3.30;;
55090;SDS011;40985;53.180;5.800;2023-12-20T07:51:01;24.98;;;3.70;;
55090;SDS011;40985;53.180;5.800;2023-12-20T07:53:27;29.42;;;3.67;;
55090;SDS011;40985;53.180;5.800;2023-12-20T07:55:53;11.00;;;0.63;;
55090;SDS011;40985;53.180;5.800;2023-12-20T07:58:19;7.00;;;0.50;;
55090;SDS011;40985;53.180;5.800;2023-12-20T08:00:45;7.93;;;0.32;;
55090;SDS011;40985;53.180;5.800;2023-12-20T08:03:10;9.60;;;0.52;;
55090;SDS011;40985;53.180;5.800;2023-12-20T08:05:36;16.45;;;1.58;;
55090;SDS011;40985;53.180;5.800;2023-12-20T08:08:04;20.92;;;2.03;;
55090;SDS011;40985;53.180;5.800;2023-12-20T08:10:30;25.27;;;3.28;;
55090;SDS011;40985;53.180;5.800;2023-12-20T08:12:56;34.88;;;3.03;;
55090;SDS011;40985;53.180;5.800;2023-12-20T08:15:21;33.78;;;3.15;;
55090;SDS011;40985;53.180;5.800;2023-12-20T08:17:47;24.77;;;2.33;;
55090;SDS011;40985;53.180;5.800;2023-12-20T08:20:13;23.95;;;3.45;;
55090;SDS011;40985;53.180;5.800;2023-12-20T08:22:38;28.75;;;2.75;;
55090;SDS011;40985;53.180;5.800;2023-12-20T08:25:04;36.38;;;3.65;;
55090;SDS011;40985;53.180;5.800;2023-12-20T08:27:30;28.08;;;2.80;;
55090;SDS011;40985;53.180;5.800;2023-12-20T08:29:57;35.05;;;3.60;;
55090;SDS011;40985;53.180;5.800;2023-12-20T08:32:25;33.33;;;4.55;;
55090;SDS011;40985;53.180;5.800;2023-12-20T08:34:51;29.13;;;3.13;;
55090;SDS011;40985;53.180;5.800;2023-12-20T08:37:17;32.78;;;3.45;;
55090;SDS011;40985;53.180;5.800;2023-12-20T08:39:43;33.10;;;2.97;;
55090;SDS011;40985;53.180;5.800;2023-12-20T08:42:09;26.83;;;3.15;;
55090;SDS011;40985;53.180;5.800;2023-12-20T08:44:35;27.00;;;3.55;;
55090;SDS011;40985;53.180;5.800;2023-12-20T08:47:00;34.70;;;3.88;;
55090;SDS011;40985;53.180;5.800;2023-12-20T08:49:26;19.27;;;2.25;;
55090;SDS011;40985;53.180;5.800;2023-12-20T08:51:53;26.00;;;2.95;;
55090;SDS011;40985;53.180;5.800;2023-12-20T08:54:18;24.05;;;2.85;;
55090;SDS011;40985;53.180;5.800;2023-12-20T08:56:44;9.45;;;1.35;;
55090;SDS011;40985;53.180;5.800;2023-12-20T08:59:11;11.30;;;0.40;;
55090;SDS011;40985;53.180;5.800;2023-12-20T09:01:37;12.98;;;0.70;;
55090;SDS011;40985;53.180;5.800;2023-12-20T09:04:02;11.63;;;0.40;;
55090;SDS011;40985;53.180;5.800;2023-12-20T09:06:28;12.13;;;0.98;;
55090;SDS011;40985;53.180;5.800;2023-12-20T09:08:54;12.10;;;0.50;;
55090;SDS011;40985;53.180;5.800;2023-12-20T09:11:19;9.35;;;0.40;;
55090;SDS011;40985;53.180;5.800;2023-12-20T09:13:45;8.82;;;0.40;;
55090;SDS011;40985;53.180;5.800;2023-12-20T09:16:11;7.10;;;0.40;;
55090;SDS011;40985;53.180;5.800;2023-12-20T09:18:38;10.75;;;0.40;;
55090;SDS011;40985;53.180;5.800;2023-12-20T09:21:04;11.40;;;0.40;;
55090;SDS011;40985;53.180;5.800;2023-12-20T09:23:29;8.27;;;0.30;;
55090;SDS011;40985;53.180;5.800;2023-12-20T09:25:55;13.27;;;0.40;;
55090;SDS011;40985;53.180;5.800;2023-12-20T09:28:21;13.70;;;0.73;;
55090;SDS011;40985;53.180;5.800;2023-12-20T09:30:46;16.80;;;0.50;;
55090;SDS011;40985;53.180;5.800;2023-12-20T09:33:12;14.52;;;0.95;;
55090;SDS011;40985;53.180;5.800;2023-12-20T09:35:39;15.88;;;0.88;;
55090;SDS011;40985;53.180;5.800;2023-12-20T09:38:04;17.77;;;1.05;;
55090;SDS011;40985;53.180;5.800;2023-12-20T09:40:30;11.80;;;1.00;;
55090;SDS011;40985;53.180;5.800;2023-12-20T09:43:04;12.35;;;0.68;;
55090;SDS011;40985;53.180;5.800;2023-12-20T09:45:35;12.45;;;0.80;;
55090;SDS011;40985;53.180;5.800;2023-12-20T09:48:02;14.90;;;1.05;;
55090;SDS011;40985;53.180;5.800;2023-12-20T09:50:30;10.90;;;0.95;;
55090;SDS011;40985;53.180;5.800;2023-12-20T09:52:57;12.30;;;0.73;;
55090;SDS011;40985;53.180;5.800;2023-12-20T09:55:25;7.25;;;0.32;;
55090;SDS011;40985;53.180;5.800;2023-12-20T09:57:52;10.23;;;0.47;;
55090;SDS011;40985;53.180;5.800;2023-12-20T10:00:17;12.07;;;0.82;;
55090;SDS011;40985;53.180;5.800;2023-12-20T10:02:59;7.78;;;0.40;;
55090;SDS011;40985;53.180;5.800;2023-12-20T10:05:29;14.13;;;0.65;;
55090;SDS011;40985;53.180;5.800;2023-12-20T10:07:56;10.68;;;1.08;;
55090;SDS011;40985;53.180;5.800;2023-12-20T10:10:22;10.10;;;0.93;;
55090;SDS011;40985;53.180;5.800;2023-12-20T10:13:07;14.50;;;1.05;;
55090;SDS011;40985;53.180;5.800;2023-12-20T10:15:35;17.10;;;1.00;;
55090;SDS011;40985;53.180;5.800;2023-12-20T10:18:01;12.75;;;0.50;;
55090;SDS011;40985;53.180;5.800;2023-12-20T10:20:28;13.60;;;0.57;;
55090;SDS011;40985;53.180;5.800;2023-12-20T10:22:58;11.23;;;1.02;;
55090;SDS011;40985;53.180;5.800;2023-12-20T10:25:24;12.05;;;1.77;;
55090;SDS011;40985;53.180;5.800;2023-12-20T10:27:51;16.02;;;1.17;;
55090;SDS011;40985;53.180;5.800;2023-12-20T10:30:45;14.45;;;1.25;;
55090;SDS011;40985;53.180;5.800;2023-12-20T10:33:10;13.98;;;1.23;;
55090;SDS011;40985;53.180;5.800;2023-12-20T10:35:37;10.80;;;0.82;;
55090;SDS011;40985;53.180;5.800;2023-12-20T10:38:03;12.73;;;0.70;;
55090;SDS011;40985;53.180;5.800;2023-12-20T10:40:30;14.10;;;1.25;;
55090;SDS011;40985;53.180;5.800;2023-12-20T10:42:59;14.88;;;0.93;;
55090;SDS011;40985;53.180;5.800;2023-12-20T10:45:26;10.73;;;0.75;;
55090;SDS011;40985;53.180;5.800;2023-12-20T10:47:52;9.63;;;1.10;;
55090;SDS011;40985;53.180;5.800;2023-12-20T10:50:18;9.85;;;0.90;;
55090;SDS011;40985;53.180;5.800;2023-12-20T10:52:45;13.68;;;1.10;;
55090;SDS011;40985;53.180;5.800;2023-12-20T10:55:12;7.20;;;0.50;;
55090;SDS011;40985;53.180;5.800;2023-12-20T10:57:38;14.07;;;1.08;;
55090;SDS011;40985;53.180;5.800;2023-12-20T11:00:05;11.13;;;0.68;;
55090;SDS011;40985;53.180;5.800;2023-12-20T11:02:38;13.32;;;0.68;;
55090;SDS011;40985;53.180;5.800;2023-12-20T11:08:00;12.95;;;1.17;;
55090;SDS011;40985;53.180;5.800;2023-12-20T11:10:33;12.73;;;1.05;;
55090;SDS011;40985;53.180;5.800;2023-12-20T11:13:08;9.65;;;0.73;;
55090;SDS011;40985;53.180;5.800;2023-12-20T11:15:42;14.32;;;0.80;;
55090;SDS011;40985;53.180;5.800;2023-12-20T11:18:08;15.85;;;1.00;;
55090;SDS011;40985;53.180;5.800;2023-12-20T11:20:40;20.20;;;1.58;;
55090;SDS011;40985;53.180;5.800;2023-12-20T11:23:10;11.40;;;0.55;;
55090;SDS011;40985;53.180;5.800;2023-12-20T11:28:33;11.70;;;1.20;;
55090;SDS011;40985;53.180;5.800;2023-12-20T11:31:00;15.88;;;1.30;;
55090;SDS011;40985;53.180;5.800;2023-12-20T11:33:29;13.18;;;2.47;;
55090;SDS011;40985;53.180;5.800;2023-12-20T11:36:03;14.15;;;1.35;;
55090;SDS011;40985;53.180;5.800;2023-12-20T11:38:37;10.85;;;0.77;;
55090;SDS011;40985;53.180;5.800;2023-12-20T11:41:05;18.30;;;1.85;;
55090;SDS011;40985;53.180;5.800;2023-12-20T11:43:31;13.73;;;0.88;;
55090;SDS011;40985;53.180;5.800;2023-12-20T11:46:06;18.38;;;1.73;;
55090;SDS011;40985;53.180;5.800;2023-12-20T11:48:38;10.45;;;0.80;;
55090;SDS011;40985;53.180;5.800;2023-12-20T11:51:12;18.40;;;1.48;;
55090;SDS011;40985;53.180;5.800;2023-12-20T11:53:41;14.77;;;1.23;;
55090;SDS011;40985;53.180;5.800;2023-12-20T11:56:10;15.35;;;1.65;;
55090;SDS011;40985;53.180;5.800;2023-12-20T11:58:36;14.20;;;1.52;;
55090;SDS011;40985;53.180;5.800;2023-12-20T12:01:02;15.35;;;1.65;;
55090;SDS011;40985;53.180;5.800;2023-12-20T12:03:29;15.60;;;1.35;;
55090;SDS011;40985;53.180;5.800;2023-12-20T12:05:55;16.30;;;1.63;;
55090;SDS011;40985;53.180;5.800;2023-12-20T12:08:21;25.67;;;2.47;;
55090;SDS011;40985;53.180;5.800;2023-12-20T12:10:46;13.18;;;1.52;;
55090;SDS011;40985;53.180;5.800;2023-12-20T12:13:12;19.98;;;1.55;;
55090;SDS011;40985;53.180;5.800;2023-12-20T12:15:39;16.15;;;1.73;;
55090;SDS011;40985;53.180;5.800;2023-12-20T12:18:07;18.73;;;1.27;;
55090;SDS011;40985;53.180;5.800;2023-12-20T12:20:33;11.75;;;0.95;;
55090;SDS011;40985;53.180;5.800;2023-12-20T12:23:05;15.18;;;1.10;;
55090;SDS011;40985;53.180;5.800;2023-12-20T12:25:32;13.55;;;0.70;;
55090;SDS011;40985;53.180;5.800;2023-12-20T12:28:00;14.93;;;1.30;;
55090;SDS011;40985;53.180;5.800;2023-12-20T12:30:26;12.27;;;1.08;;
55090;SDS011;40985;53.180;5.800;2023-12-20T12:32:53;8.23;;;0.60;;
55090;SDS011;40985;53.180;5.800;2023-12-20T12:35:21;10.15;;;0.95;;
55090;SDS011;40985;53.180;5.800;2023-12-20T12:37:46;6.07;;;0.35;;
55090;SDS011;40985;53.180;5.800;2023-12-20T12:42:39;7.50;;;0.30;;
55090;SDS011;40985;53.180;5.800;2023-12-20T12:45:06;10.20;;;1.75;;
55090;SDS011;40985;53.180;5.800;2023-12-20T12:47:32;9.88;;;0.63;;
55090;SDS011;40985;53.180;5.800;2023-12-20T12:49:58;13.75;;;0.60;;
55090;SDS011;40985;53.180;5.800;2023-12-20T12:52:24;9.50;;;0.90;;
55090;SDS011;40985;53.180;5.800;2023-12-20T12:54:51;9.32;;;0.60;;
55090;SDS011;40985;53.180;5.800;2023-12-20T12:57:17;11.20;;;0.60;;
55090;SDS011;40985;53.180;5.800;2023-12-20T12:59:44;16.08;;;0.90;;
55090;SDS011;40985;53.180;5.800;2023-12-20T13:02:11;11.75;;;0.40;;
55090;SDS011;40985;53.180;5.800;2023-12-20T13:04:40;11.52;;;1.40;;
55090;SDS011;40985;53.180;5.800;2023-12-20T13:07:06;11.23;;;1.08;;
55090;SDS011;40985;53.180;5.800;2023-12-20T13:09:35;10.65;;;0.80;;
55090;SDS011;40985;53.180;5.800;2023-12-20T13:12:01;12.18;;;0.88;;
55090;SDS011;40985;53.180;5.800;2023-12-20T13:14:29;4.55;;;0.65;;
55090;SDS011;40985;53.180;5.800;2023-12-20T13:16:58;8.02;;;0.43;;
55090;SDS011;40985;53.180;5.800;2023-12-20T13:19:23;7.25;;;0.43;;
55090;SDS011;40985;53.180;5.800;2023-12-20T13:21:49;7.90;;;0.43;;
55090;SDS011;40985;53.180;5.800;2023-12-20T13:24:15;5.53;;;0.30;;
55090;SDS011;40985;53.180;5.800;2023-12-20T13:26:40;5.38;;;0.30;;
55090;SDS011;40985;53.180;5.800;2023-12-20T13:29:06;7.22;;;0.20;;
55090;SDS011;40985;53.180;5.800;2023-12-20T13:31:32;6.63;;;0.40;;
55090;SDS011;40985;53.180;5.800;2023-12-20T13:33:58;13.23;;;0.93;;
55090;SDS011;40985;53.180;5.800;2023-12-20T13:36:23;7.43;;;0.30;;
55090;SDS011;40985;53.180;5.800;2023-12-20T13:38:49;9.38;;;0.30;;
55090;SDS011;40985;53.180;5.800;2023-12-20T13:41:15;6.40;;;0.47;;
55090;SDS011;40985;53.180;5.800;2023-12-20T13:43:40;13.02;;;0.95;;
55090;SDS011;40985;53.180;5.800;2023-12-20T13:46:07;6.40;;;0.50;;
55090;SDS011;40985;53.180;5.800;2023-12-20T13:48:34;9.02;;;0.55;;
55090;SDS011;40985;53.180;5.800;2023-12-20T13:51:00;10.55;;;1.23;;
55090;SDS011;40985;53.180;5.800;2023-12-20T13:53:27;10.02;;;0.43;;
55090;SDS011;40985;53.180;5.800;2023-12-20T13:55:53;14.32;;;1.05;;
55090;SDS011;40985;53.180;5.800;2023-12-20T13:58:19;9.68;;;0.60;;
55090;SDS011;40985;53.180;5.800;2023-12-20T14:00:45;12.95;;;1.40;;
55090;SDS011;40985;53.180;5.800;2023-12-20T14:03:11;15.57;;;0.90;;
55090;SDS011;40985;53.180;5.800;2023-12-20T14:05:37;7.68;;;0.75;;
55090;SDS011;40985;53.180;5.800;2023-12-20T14:08:02;12.18;;;0.75;;
55090;SDS011;40985;53.180;5.800;2023-12-20T14:10:28;16.58;;;0.85;;
55090;SDS011;40985;53.180;5.800;2023-12-20T14:12:55;9.00;;;0.50;;
55090;SDS011;40985;53.180;5.800;2023-12-20T14:15:21;14.48;;;1.20;;
55090;SDS011;40985;53.180;5.800;2023-12-20T14:17:47;11.98;;;0.77;;
55090;SDS011;40985;53.180;5.800;2023-12-20T14:20:12;10.50;;;0.93;;
55090;SDS011;40985;53.180;5.800;2023-12-20T14:22:38;17.60;;;1.02;;
55090;SDS011;40985;53.180;5.800;2023-12-20T14:25:10;16.15;;;1.17;;
55090;SDS011;40985;53.180;5.800;2023-12-20T14:27:37;20.15;;;1.23;;
55090;SDS011;40985;53.180;5.800;2023-12-20T14:30:03;21.85;;;1.48;;
55090;SDS011;40985;53.180;5.800;2023-12-20T14:32:30;20.08;;;1.98;;
55090;SDS011;40985;53.180;5.800;2023-12-20T14:34:56;27.05;;;2.30;;
55090;SDS011;40985;53.180;5.800;2023-12-20T14:37:22;27.98;;;2.10;;
55090;SDS011;40985;53.180;5.800;2023-12-20T14:39:47;19.50;;;1.85;;